Time;durP1;ratioP1;P1;durP2;ratioP2;P2;SDS_P1;SDS_P2;PMS_P1;PMS_P2;Temp;Humidity;BMP_temperature;BMP_pressure;BME280_temperature;BME280_humidity;BME280_pressure;Samples;Min_cycle;Max_cycle;Signal;HPM_P1;HPM_P2
2022/08/18 00:00:42;;;;;;;48.75;29.23;;;;;;;19.29;78.28;99000.19;5112359;27;20035;-56
2022/08/18 00:03:08;;;;;;;49.60;27.95;;;;;;;19.24;77.97;99004.94;5078799;27;20381;-57
2022/08/18 00:05:33;;;;;;;46.25;27.08;;;;;;;19.25;78.27;98996.47;5080390;28;20401;-56
2022/08/18 00:07:59;;;;;;;48.13;27.05;;;;;;;19.15;78.71;98999.44;5094304;27;20065;-57
2022/08/18 00:10:24;;;;;;;47.20;27.83;;;;;;;19.09;78.61;98995.19;5112023;27;20053;-56
2022/08/18 00:12:50;;;;;;;45.88;25.85;;;;;;;19.09;78.44;98996.00;5111642;27;20040;-56
2022/08/18 00:15:15;;;;;;;46.30;26.25;;;;;;;18.99;79.05;98984.53;5112141;27;20020;-56
2022/08/18 00:17:41;;;;;;;44.33;26.42;;;;;;;18.94;79.19;98980.03;5094278;27;20031;-56
2022/08/18 00:20:10;;;;;;;39.78;26.10;;;;;;;18.85;79.21;98979.94;5113008;27;20577;-56
2022/08/18 00:22:35;;;;;;;45.25;26.17;;;;;;;18.67;80.21;98976.22;5112074;27;20053;-56
2022/08/18 00:25:01;;;;;;;51.67;27.58;;;;;;;18.35;82.27;98987.16;5077241;28;20024;-56
2022/08/18 00:27:28;;;;;;;45.10;26.58;;;;;;;18.45;81.50;98982.31;5111621;27;20232;-56
2022/08/18 00:29:54;;;;;;;46.30;27.55;;;;;;;18.52;81.24;98981.91;5111734;27;20100;-56
2022/08/18 00:32:25;;;;;;;51.38;28.30;;;;;;;18.59;80.79;98987.75;5111387;27;20035;-56
2022/08/18 00:34:51;;;;;;;42.88;26.25;;;;;;;18.64;80.25;98986.84;5111218;27;20026;-56
2022/08/18 00:37:17;;;;;;;50.78;28.23;;;;;;;18.68;80.29;98985.94;5111669;27;20026;-56
2022/08/18 00:39:42;;;;;;;45.97;27.98;;;;;;;18.66;80.44;98998.22;5111785;28;20016;-56
2022/08/18 00:42:12;;;;;;;47.90;28.13;;;;;;;18.53;81.13;98999.81;5111262;27;20028;-56
2022/08/18 00:44:38;;;;;;;47.35;28.05;;;;;;;18.43;81.76;99006.25;5111608;27;20023;-56
2022/08/18 00:47:03;;;;;;;44.03;26.05;;;;;;;18.48;81.22;99006.13;5093441;27;20023;-57
2022/08/18 00:49:29;;;;;;;48.38;27.92;;;;;;;18.54;80.83;99009.56;5110264;27;20062;-56
2022/08/18 00:51:54;;;;;;;49.65;26.67;;;;;;;18.55;80.23;99005.75;5110962;27;20469;-56
2022/08/18 00:54:23;;;;;;;46.75;27.30;;;;;;;18.43;81.12;99010.88;5093120;27;20043;-56
2022/08/18 00:56:50;;;;;;;44.85;25.48;;;;;;;18.37;81.27;99026.44;5099319;28;20028;-56
2022/08/18 00:59:34;;;;;;;48.47;28.45;;;;;;;18.22;82.03;99030.22;5111180;28;20595;-56
2022/08/18 01:02:01;;;;;;;46.95;25.98;;;;;;;18.29;81.57;99033.31;5110892;28;20074;-56
2022/08/18 01:05:00;;;;;;;45.88;26.95;;;;;;;18.22;82.14;99016.66;5092866;28;20513;-56
2022/08/18 01:07:32;;;;;;;51.50;26.30;;;;;;;18.14;81.65;99017.31;5111239;28;20042;-57
2022/08/18 01:09:58;;;;;;;47.03;25.63;;;;;;;18.00;82.53;99013.78;5114069;27;20094;-56
2022/08/18 01:12:25;;;;;;;48.40;25.77;;;;;;;17.83;82.64;99025.97;5110403;27;20036;-57
2022/08/18 01:14:50;;;;;;;43.28;26.17;;;;;;;17.60;84.38;99018.72;5092853;28;20119;-56
2022/08/18 01:22:48;;;;;;;46.80;25.50;;;;;;;17.52;84.39;99019.34;5099495;28;20412;-56
2022/08/18 01:28:02;;;;;;;51.90;28.88;;;;;;;17.53;85.29;99034.53;5110926;28;20037;-56
2022/08/18 01:30:28;;;;;;;50.03;27.88;;;;;;;17.52;84.91;99035.63;5110896;28;20096;-56
2022/08/18 01:32:53;;;;;;;59.15;31.60;;;;;;;17.53;85.47;99026.41;5110603;28;20058;-56
2022/08/18 01:35:20;;;;;;;52.15;29.10;;;;;;;17.64;85.07;99017.00;5110234;28;20024;-55
2022/08/18 01:37:45;;;;;;;56.33;30.35;;;;;;;17.69;84.33;99019.63;5097133;28;20016;-56
2022/08/18 01:40:12;;;;;;;45.45;27.88;;;;;;;17.71;84.33;99022.88;5110630;28;20549;-56
2022/08/18 01:42:38;;;;;;;46.25;27.92;;;;;;;17.72;84.13;99024.47;5111551;28;20391;-56
2022/08/18 01:45:05;;;;;;;51.60;28.70;;;;;;;17.72;83.64;99023.66;5110651;28;20020;-56
2022/08/18 01:47:31;;;;;;;44.00;25.55;;;;;;;17.51;83.09;99023.19;5110630;28;20043;-56
2022/08/18 01:49:57;;;;;;;47.10;25.20;;;;;;;17.31;83.49;99011.53;5110158;28;20066;-56
2022/08/18 01:52:22;;;;;;;51.75;27.98;;;;;;;17.10;86.91;99015.59;5110342;28;20058;-56
2022/08/18 01:54:48;;;;;;;54.00;30.17;;;;;;;17.25;86.86;99020.81;5110275;28;20510;-57
2022/08/18 01:57:14;;;;;;;53.55;29.52;;;;;;;17.27;86.91;99018.59;5117102;28;20043;-56
2022/08/18 01:59:40;;;;;;;53.33;28.77;;;;;;;17.32;87.01;99013.13;5100763;28;20030;-57
2022/08/18 02:02:05;;;;;;;60.05;31.52;;;;;;;17.38;86.84;99016.59;5114805;27;20020;-56
2022/08/18 02:04:34;;;;;;;47.92;28.35;;;;;;;17.38;86.48;99019.28;5100567;27;20030;-56
2022/08/18 02:07:01;;;;;;;55.28;29.95;;;;;;;17.30;86.46;99028.88;5096738;28;20027;-55
2022/08/18 02:09:27;;;;;;;52.85;29.75;;;;;;;17.29;87.40;99026.44;5097004;27;20050;-56
2022/08/18 02:11:52;;;;;;;59.78;30.45;;;;;;;17.32;87.09;99031.28;5114458;27;20421;-57
2022/08/18 02:14:18;;;;;;;51.63;29.80;;;;;;;17.28;87.45;99025.66;5113973;27;20047;-56
2022/08/18 02:16:43;;;;;;;53.00;30.27;;;;;;;17.07;88.55;99018.88;5114246;28;20038;-56
2022/08/18 02:19:08;;;;;;;60.63;32.42;;;;;;;16.93;89.31;99019.59;5114163;27;20023;-56
2022/08/18 02:21:34;;;;;;;55.15;31.90;;;;;;;16.94;89.77;99015.78;5113518;27;20028;-56
2022/08/18 02:24:00;;;;;;;56.67;32.42;;;;;;;16.82;90.26;99018.09;5114531;27;20028;-56
2022/08/18 02:26:25;;;;;;;61.55;32.58;;;;;;;16.86;90.71;99018.34;5114307;27;20035;-56
2022/08/18 02:28:51;;;;;;;60.30;31.45;;;;;;;16.77;90.28;99016.25;5114012;27;20122;-56
2022/08/18 02:31:18;;;;;;;61.40;31.02;;;;;;;16.62;91.46;99019.09;5114068;27;20084;-61
2022/08/18 02:33:43;;;;;;;55.42;30.15;;;;;;;16.66;91.31;99020.13;5114024;27;20031;-56
2022/08/18 02:36:10;;;;;;;56.22;31.55;;;;;;;16.68;90.80;99011.75;5113404;27;20034;-56
2022/08/18 02:38:36;;;;;;;68.30;33.15;;;;;;;16.44;92.58;99011.72;5113957;27;20112;-56
2022/08/18 02:41:03;;;;;;;66.97;35.45;;;;;;;16.36;93.43;99015.84;5114095;27;20035;-56
2022/08/18 02:43:28;;;;;;;67.90;35.00;;;;;;;16.38;92.69;99009.06;5113656;27;20088;-56
2022/08/18 02:46:00;;;;;;;74.15;36.45;;;;;;;16.41;93.12;99010.41;5113994;27;20470;-57
2022/08/18 02:48:34;;;;;;;68.32;34.20;;;;;;;16.48;91.46;99005.47;5110432;27;20058;-56
2022/08/18 02:51:03;;;;;;;51.42;29.73;;;;;;;16.48;90.21;99001.94;5095341;27;20032;-56
2022/08/18 02:53:28;;;;;;;45.58;27.25;;;;;;;16.31;88.78;99002.38;5113581;27;20500;-56
2022/08/18 02:55:54;;;;;;;51.90;27.90;;;;;;;16.17;88.23;99003.06;5095303;28;20028;-56
2022/08/18 02:58:20;;;;;;;45.75;27.83;;;;;;;15.72;91.79;99006.94;5113239;27;20026;-56
2022/08/18 03:00:45;;;;;;;54.47;27.95;;;;;;;15.53;94.98;99004.06;5113193;27;20170;-56
2022/08/18 03:03:12;;;;;;;58.70;32.88;;;;;;;15.64;96.78;99011.00;5078198;27;20027;-56
2022/08/18 03:05:37;;;;;;;68.68;34.70;;;;;;;15.97;94.67;99008.63;5100331;28;20664;-56
2022/08/18 03:08:03;;;;;;;70.90;35.63;;;;;;;16.07;93.32;99007.72;5113498;27;20016;-56
2022/08/18 03:10:28;;;;;;;73.47;38.22;;;;;;;16.05;95.15;99010.75;5100829;28;20389;-56
2022/08/18 03:12:54;;;;;;;76.75;38.72;;;;;;;16.23;94.00;99016.53;5112402;27;20031;-56
2022/08/18 03:15:19;;;;;;;70.35;36.75;;;;;;;16.38;93.46;99021.78;5113076;27;20389;-56
2022/08/18 03:17:45;;;;;;;69.47;35.28;;;;;;;16.23;92.19;99019.22;5113193;27;20030;-56
2022/08/18 03:20:10;;;;;;;65.80;33.20;;;;;;;16.22;92.26;99021.09;5112526;27;20032;-57
2022/08/18 03:22:36;;;;;;;65.90;34.10;;;;;;;16.08;92.60;99015.56;5104980;27;20563;-56
2022/08/18 03:25:02;;;;;;;57.22;30.20;;;;;;;15.91;93.48;99015.19;5113166;27;20020;-56
2022/08/18 03:27:27;;;;;;;57.58;31.20;;;;;;;15.96;92.97;99023.25;5099657;27;20028;-56
2022/08/18 03:29:53;;;;;;;55.30;29.98;;;;;;;16.01;91.84;99020.50;5112997;27;20015;-56
2022/08/18 03:32:18;;;;;;;57.80;32.33;;;;;;;15.92;92.23;99016.78;5096406;27;20035;-56
2022/08/18 03:34:44;;;;;;;64.68;32.67;;;;;;;15.77;94.39;99011.50;5096952;27;20020;-56
2022/08/18 03:37:09;;;;;;;65.38;32.50;;;;;;;15.89;94.34;99017.34;5112827;27;20458;-56
2022/08/18 03:39:35;;;;;;;66.75;33.75;;;;;;;15.83;95.73;99018.50;5116125;27;20012;-57
2022/08/18 03:42:00;;;;;;;65.95;33.75;;;;;;;15.85;95.88;99016.28;5112648;27;20028;-55
2022/08/18 03:44:28;;;;;;;73.38;37.20;;;;;;;15.93;94.31;99008.41;5112856;27;20469;-57
2022/08/18 03:46:53;;;;;;;64.43;35.55;;;;;;;15.95;94.37;99000.00;5112631;27;20031;-57
2022/08/18 03:49:21;;;;;;;67.85;35.22;;;;;;;16.05;93.15;99005.34;5112314;27;20023;-58
2022/08/18 03:51:47;;;;;;;64.75;33.20;;;;;;;16.07;93.41;99003.13;5116577;27;20087;-57
2022/08/18 03:54:15;;;;;;;58.13;31.65;;;;;;;16.04;92.21;99001.00;5112362;27;20023;-57
2022/08/18 03:56:40;;;;;;;48.97;27.85;;;;;;;16.05;91.78;99004.50;5112355;27;20080;-57
2022/08/18 03:59:14;;;;;;;73.43;34.72;;;;;;;15.82;95.41;99006.03;5112220;27;20035;-57
2022/08/18 04:01:40;;;;;;;65.18;34.00;;;;;;;15.97;95.55;99005.91;5112095;27;20069;-57
2022/08/18 04:04:09;;;;;;;68.07;36.28;;;;;;;16.01;94.08;99008.88;5112291;27;20024;-58
2022/08/18 04:06:44;;;;;;;73.22;37.88;;;;;;;16.06;94.85;98990.72;5093536;27;20019;-57
2022/08/18 04:09:11;;;;;;;63.95;34.83;;;;;;;16.11;93.37;98993.38;5112030;27;20028;-57
2022/08/18 04:11:36;;;;;;;69.03;33.55;;;;;;;16.09;93.03;98994.75;5080723;28;20028;-57
2022/08/18 04:14:03;;;;;;;53.95;30.27;;;;;;;16.05;92.23;98997.22;5111815;27;20050;-57
2022/08/18 04:16:31;;;;;;;59.70;30.77;;;;;;;16.06;90.90;98987.22;5111784;27;20020;-57
2022/08/18 04:19:00;;;;;;;64.45;34.67;;;;;;;16.07;93.13;98992.31;5112172;27;20051;-57
2022/08/18 04:21:26;;;;;;;83.57;40.53;;;;;;;15.85;96.15;98992.78;5111584;27;20489;-57
2022/08/18 04:23:51;;;;;;;76.07;40.47;;;;;;;15.78;96.91;98999.63;5111807;28;20046;-57
2022/08/18 04:26:18;;;;;;;79.25;39.50;;;;;;;15.81;96.67;99004.44;5115577;27;20076;-56
2022/08/18 04:28:44;;;;;;;80.45;40.10;;;;;;;15.95;95.73;99000.00;5116057;27;20058;-56
2022/08/18 04:31:12;;;;;;;85.88;41.42;;;;;;;16.03;95.53;99007.50;5111296;27;20024;-58
2022/08/18 04:33:38;;;;;;;83.45;41.58;;;;;;;16.13;95.17;99007.41;5111977;27;20016;-57
2022/08/18 04:36:12;;;;;;;81.70;40.15;;;;;;;16.23;95.10;99000.31;5097582;28;20482;-56
2022/08/18 04:38:37;;;;;;;89.10;41.90;;;;;;;16.26;94.92;99005.13;5094084;27;20019;-57
2022/08/18 04:41:04;;;;;;;84.05;41.03;;;;;;;16.22;95.17;99009.50;5111277;27;20449;-57
2022/08/18 04:43:29;;;;;;;92.43;42.75;;;;;;;16.24;95.27;99010.03;5111494;27;20028;-57
2022/08/18 04:46:00;;;;;;;87.53;44.25;;;;;;;16.23;95.20;99011.13;5111485;27;20070;-57
2022/08/18 04:48:36;;;;;;;85.25;41.83;;;;;;;16.28;95.07;99009.16;5111480;27;20028;-57
2022/08/18 04:51:10;;;;;;;82.03;40.33;;;;;;;16.20;95.17;99011.66;5110855;27;20051;-56
2022/08/18 04:53:45;;;;;;;86.68;43.13;;;;;;;16.14;96.37;99013.63;5111458;27;20023;-56
2022/08/18 04:56:25;;;;;;;89.82;42.38;;;;;;;16.24;95.45;99010.03;5101887;28;20074;-56
2022/08/18 04:58:58;;;;;;;92.88;44.78;;;;;;;16.28;95.87;99013.78;5111304;27;20408;-56
2022/08/18 05:01:25;;;;;;;78.75;36.85;;;;;;;16.35;93.71;99008.84;5111301;27;20031;-57
2022/08/18 05:03:51;;;;;;;73.93;36.72;;;;;;;16.20;92.77;99011.66;5092851;28;20377;-56
2022/08/18 05:06:18;;;;;;;67.25;35.33;;;;;;;16.22;92.25;99014.91;5111422;27;20023;-56
2022/08/18 05:08:44;;;;;;;62.70;33.08;;;;;;;16.18;91.66;99017.38;5117512;27;20031;-56
2022/08/18 05:11:10;;;;;;;62.40;32.90;;;;;;;16.05;91.82;99026.13;5111001;28;20027;-57
2022/08/18 05:13:35;;;;;;;61.45;33.47;;;;;;;15.81;94.83;99026.06;5110939;27;20393;-57
2022/08/18 05:16:02;;;;;;;65.60;34.63;;;;;;;16.12;93.61;99032.81;5111021;28;20030;-57
2022/08/18 05:18:29;;;;;;;78.05;37.25;;;;;;;16.11;94.29;99025.81;5121154;27;20531;-56
2022/08/18 05:20:54;;;;;;;69.35;37.92;;;;;;;16.15;94.19;99028.78;5110372;27;20477;-57
2022/08/18 05:23:20;;;;;;;64.20;32.83;;;;;;;16.20;92.09;99033.31;5111064;28;20028;-57
2022/08/18 05:25:46;;;;;;;66.50;35.85;;;;;;;16.11;94.39;99025.81;5110864;28;20027;-57
2022/08/18 05:28:13;;;;;;;71.55;37.88;;;;;;;16.45;92.68;99029.53;5111271;28;20039;-57
2022/08/18 05:30:39;;;;;;;66.38;36.20;;;;;;;16.45;91.95;99035.78;5100363;28;20027;-57
2022/08/18 05:33:05;;;;;;;71.65;34.65;;;;;;;16.45;93.21;99040.38;5110606;28;20023;-57
2022/08/18 05:36:04;;;;;;;75.55;39.10;;;;;;;16.47;94.79;99032.78;5116074;27;20027;-56
2022/08/18 05:38:49;;;;;;;71.20;38.95;;;;;;;16.56;94.98;99048.09;5100082;27;20040;-57
2022/08/18 05:41:24;;;;;;;70.30;36.33;;;;;;;16.76;92.99;99047.09;5117453;27;20032;-57
2022/08/18 05:43:50;;;;;;;84.18;41.72;;;;;;;16.76;93.73;99046.28;5099639;27;20108;-57
2022/08/18 05:46:15;;;;;;;79.32;40.38;;;;;;;16.90;93.38;99051.84;5099448;27;20035;-57
2022/08/18 05:48:41;;;;;;;80.22;39.25;;;;;;;16.97;92.14;99047.72;5117415;27;20420;-56
2022/08/18 05:51:24;;;;;;;84.88;40.75;;;;;;;16.99;91.65;99050.91;5116941;27;20062;-56
2022/08/18 05:56:46;;;;;;;82.45;40.00;;;;;;;17.08;91.94;99050.28;5117616;27;20038;-56
2022/08/18 05:59:15;;;;;;;72.28;36.65;;;;;;;17.18;91.89;99059.09;5105998;27;20073;-58
2022/08/18 06:01:43;;;;;;;78.22;38.17;;;;;;;17.20;91.26;99058.81;5099252;27;20028;-57
2022/08/18 06:04:37;;;;;;;72.55;37.97;;;;;;;17.18;90.94;99064.50;5117285;27;20096;-58
2022/08/18 06:07:04;;;;;;;59.30;30.05;;;;;;;17.00;88.92;99063.38;5088290;27;20040;-57
2022/08/18 06:09:49;;;;;;;67.72;34.42;;;;;;;16.87;90.96;99061.34;5118634;27;20068;-57
2022/08/18 06:12:23;;;;;;;78.60;38.40;;;;;;;16.85;92.58;99065.41;5117238;27;20610;-57
2022/08/18 06:14:49;;;;;;;98.78;41.90;;;;;;;16.83;94.43;99067.63;5117199;27;20040;-57
2022/08/18 06:17:51;;;;;;;108.75;42.85;;;;;;;16.94;94.39;99067.22;5117120;27;20072;-57
2022/08/18 06:20:31;;;;;;;94.07;42.80;;;;;;;17.17;93.38;99072.91;5095329;27;20036;-58
2022/08/18 06:23:24;;;;;;;116.70;45.63;;;;;;;17.28;92.16;99069.00;5117232;27;20028;-57
2022/08/18 06:26:12;;;;;;;64.10;32.60;;;;;;;17.22;89.41;99054.72;5110651;27;20398;-57
2022/08/18 06:28:51;;;;;;;85.78;37.28;;;;;;;17.28;88.48;99051.94;5100347;28;20051;-57
2022/08/18 06:31:28;;;;;;;56.60;32.60;;;;;;;17.34;88.53;99067.81;5116861;27;20367;-57
2022/08/18 06:34:05;;;;;;;101.15;39.97;;;;;;;17.34;90.11;99059.69;5124581;27;20020;-57
2022/08/18 06:36:47;;;;;;;109.25;43.42;;;;;;;17.18;91.44;99059.09;5099045;28;20390;-57
2022/08/18 06:39:34;;;;;;;98.53;40.80;;;;;;;17.17;91.99;99062.91;5100228;27;20251;-57
2022/08/18 06:42:00;;;;;;;128.32;44.70;;;;;;;17.40;91.45;99066.66;5116709;27;20285;-57
2022/08/18 06:44:33;;;;;;;130.20;45.75;;;;;;;17.58;90.78;99061.56;5101406;27;20027;-57
2022/08/18 06:47:51;;;;;;;151.43;52.25;;;;;;;17.54;93.58;99060.50;5098326;27;20394;-58
2022/08/18 06:50:25;;;;;;;142.07;53.80;;;;;;;17.61;94.18;99047.41;5087978;27;20071;-57
2022/08/18 06:52:58;;;;;;;131.55;50.60;;;;;;;17.73;93.75;99052.41;5078735;27;20114;-57
2022/08/18 06:55:31;;;;;;;144.43;51.45;;;;;;;17.74;94.57;99038.53;5113579;27;20043;-57
2022/08/18 06:57:58;;;;;;;165.30;55.55;;;;;;;17.84;93.95;99038.41;5114367;27;20071;-57
2022/08/18 07:00:26;;;;;;;170.85;58.40;;;;;;;17.89;94.50;99040.22;5098371;28;20102;-57
2022/08/18 07:03:13;;;;;;;167.35;59.88;;;;;;;17.89;94.58;99043.75;5113299;27;20023;-57
2022/08/18 07:06:04;;;;;;;156.85;58.20;;;;;;;17.71;97.58;99049.16;5113194;28;20027;-57
2022/08/18 07:08:41;;;;;;;163.73;58.80;;;;;;;17.84;95.82;99051.97;5104182;28;20031;-57
2022/08/18 07:11:27;;;;;;;153.43;59.42;;;;;;;17.89;95.50;99061.94;5095278;28;20023;-57
2022/08/18 07:14:11;;;;;;;138.25;58.50;;;;;;;17.80;96.75;99061.81;5112901;27;20063;-57
2022/08/18 07:16:37;;;;;;;162.25;59.92;;;;;;;17.86;97.60;99067.94;5113031;27;20492;-58
2022/08/18 07:19:09;;;;;;;159.45;61.83;;;;;;;17.94;96.78;99071.88;5113055;27;20016;-57
2022/08/18 07:21:36;;;;;;;154.52;62.33;;;;;;;18.05;96.57;99081.50;5112549;27;20035;-57
2022/08/18 07:24:10;;;;;;;176.48;64.03;;;;;;;18.08;96.54;99083.59;5112932;27;20022;-59
2022/08/18 07:27:01;;;;;;;161.80;64.38;;;;;;;18.10;96.99;99090.34;5088260;28;20043;-57
2022/08/18 07:29:32;;;;;;;167.65;64.25;;;;;;;17.96;97.90;99094.09;5113041;28;20120;-58
2022/08/18 07:32:01;;;;;;;154.68;60.75;;;;;;;17.89;96.84;99102.59;5117989;27;20166;-57
2022/08/18 07:34:39;;;;;;;169.25;64.18;;;;;;;17.83;98.54;99115.41;5077907;28;20043;-57
2022/08/18 07:37:05;;;;;;;183.65;67.28;;;;;;;17.83;99.16;99107.28;5079241;27;20482;-57
2022/08/18 07:39:48;;;;;;;177.93;67.30;;;;;;;17.97;98.30;99122.81;5112988;27;20421;-57
2022/08/18 07:42:48;;;;;;;181.70;66.75;;;;;;;17.84;99.05;99122.44;5101875;28;20036;-57
2022/08/18 07:45:35;;;;;;;182.10;66.05;;;;;;;17.85;99.40;99120.56;5065143;27;20474;-56
2022/08/18 07:48:11;;;;;;;178.02;67.80;;;;;;;17.83;99.46;99128.97;5114474;27;20371;-57
2022/08/18 07:50:42;;;;;;;177.82;66.70;;;;;;;17.76;100.00;99131.22;5111874;27;20035;-57
2022/08/18 07:53:11;;;;;;;173.82;69.40;;;;;;;17.76;100.00;99128.50;5094900;28;20035;-57
2022/08/18 07:55:37;;;;;;;171.87;62.97;;;;;;;17.65;99.60;99135.97;5112289;27;20059;-57
2022/08/18 07:58:09;;;;;;;174.90;67.35;;;;;;;17.64;99.95;99128.13;5077001;27;20272;-58
2022/08/18 08:00:46;;;;;;;167.68;63.97;;;;;;;17.63;100.00;99129.22;5112311;27;20032;-56
2022/08/18 08:03:38;;;;;;;175.88;61.45;;;;;;;17.59;100.00;99128.19;5079483;28;20104;-57
2022/08/18 08:06:25;;;;;;;180.10;61.88;;;;;;;17.67;99.76;99132.94;5082122;28;20031;-57
2022/08/18 08:08:59;;;;;;;182.32;66.90;;;;;;;18.03;96.91;99127.06;5097062;27;20126;-57
2022/08/18 08:11:46;;;;;;;177.50;64.53;;;;;;;18.05;95.76;99136.53;5111791;27;20486;-57
2022/08/18 08:14:35;;;;;;;158.40;60.03;;;;;;;18.11;95.36;99135.34;5112271;27;20051;-56
2022/08/18 08:17:03;;;;;;;166.02;63.53;;;;;;;18.12;95.61;99136.13;5099232;27;20027;-57
2022/08/18 08:19:44;;;;;;;152.10;58.28;;;;;;;18.58;92.60;99140.06;5111449;27;20425;-57
2022/08/18 08:22:30;;;;;;;144.45;59.10;;;;;;;18.86;90.83;99139.03;5116640;27;20034;-57
2022/08/18 08:25:11;;;;;;;136.95;55.80;;;;;;;19.20;89.49;99124.28;5105893;28;20019;-57
2022/08/18 08:27:45;;;;;;;140.30;55.22;;;;;;;19.35;87.15;99136.75;5112352;27;20077;-56
2022/08/18 08:30:15;;;;;;;150.60;56.97;;;;;;;19.35;87.01;99137.56;5111417;27;20114;-56
2022/08/18 08:32:41;;;;;;;125.68;55.20;;;;;;;19.23;87.58;99142.69;5093508;27;20032;-57
2022/08/18 08:35:06;;;;;;;123.20;53.05;;;;;;;19.51;86.39;99138.03;5098946;28;20038;-57
2022/08/18 08:37:41;;;;;;;145.25;53.50;;;;;;;19.66;85.32;99138.84;5113875;27;20076;-57
2022/08/18 08:40:31;;;;;;;138.05;56.05;;;;;;;19.80;84.16;99142.38;5097071;27;20042;-57
2022/08/18 08:43:01;;;;;;;140.05;54.53;;;;;;;20.07;82.48;99137.94;5092129;28;20032;-57
2022/08/18 08:45:36;;;;;;;135.55;54.00;;;;;;;19.56;84.47;99126.25;5094445;28;20148;-56
2022/08/18 08:48:28;;;;;;;129.80;52.92;;;;;;;19.97;82.99;99122.69;5097866;27;20053;-57
2022/08/18 08:51:03;;;;;;;115.30;50.08;;;;;;;20.23;80.29;99120.16;5101653;27;20067;-56
2022/08/18 08:53:40;;;;;;;121.05;51.05;;;;;;;20.48;79.56;99129.63;5092731;28;20118;-56
2022/08/18 08:56:14;;;;;;;110.05;49.13;;;;;;;20.21;79.86;99123.19;5093232;27;20465;-56
2022/08/18 08:58:53;;;;;;;110.20;46.03;;;;;;;20.67;77.93;99124.00;5093429;28;20019;-56
2022/08/18 09:01:31;;;;;;;96.25;44.65;;;;;;;21.00;76.19;99131.88;5110993;27;20023;-55
2022/08/18 09:04:30;;;;;;;96.65;47.25;;;;;;;20.68;77.25;99125.63;5100889;27;20019;-56
2022/08/18 09:07:14;;;;;;;90.45;42.95;;;;;;;21.16;74.37;99124.88;5078574;27;20088;-56
2022/08/18 09:10:38;;;;;;;85.05;43.95;;;;;;;21.29;73.84;99123.97;5110342;28;20427;-57
2022/08/18 09:13:22;;;;;;;88.32;41.40;;;;;;;21.85;71.06;99129.72;5053752;28;20045;-56
2022/08/18 09:16:18;;;;;;;87.70;41.80;;;;;;;21.73;72.29;99124.88;5046834;28;20036;-57
2022/08/18 09:19:21;;;;;;;75.93;39.55;;;;;;;21.55;72.38;99131.44;5101410;28;20096;-56
2022/08/18 09:21:46;;;;;;;79.60;39.17;;;;;;;21.49;72.49;99132.69;5110761;27;20063;-56
2022/08/18 09:24:27;;;;;;;84.22;41.33;;;;;;;21.43;72.53;99140.22;5111006;27;20076;-56
2022/08/18 09:26:53;;;;;;;74.03;39.28;;;;;;;21.37;72.66;99140.66;5092174;28;20019;-56
2022/08/18 09:29:22;;;;;;;80.20;38.00;;;;;;;21.70;71.38;99136.44;5111184;28;20024;-57
2022/08/18 09:31:48;;;;;;;76.63;40.70;;;;;;;21.71;71.79;99146.22;5111036;28;20020;-56
2022/08/18 09:34:21;;;;;;;80.50;39.75;;;;;;;22.23;69.63;99140.03;5085512;28;20322;-57
2022/08/18 09:36:58;;;;;;;81.18;41.75;;;;;;;22.15;70.21;99149.78;5110703;28;20019;-56
2022/08/18 09:43:01;;;;;;;96.25;45.35;;;;;;;20.95;74.11;99161.97;5110569;28;20084;-57
2022/08/18 09:45:29;;;;;;;98.13;45.67;;;;;;;21.24;73.94;99159.53;5082543;28;20051;-57
2022/08/18 09:47:55;;;;;;;97.05;44.75;;;;;;;21.22;73.83;99160.97;5116684;28;20023;-56
2022/08/18 09:50:27;;;;;;;106.63;50.35;;;;;;;20.98;74.70;99161.34;5110184;28;20085;-56
2022/08/18 09:52:54;;;;;;;91.32;42.08;;;;;;;22.18;70.06;99165.53;5110654;28;20043;-57
2022/08/18 09:55:23;;;;;;;86.53;42.90;;;;;;;21.71;71.55;99148.94;5092965;28;20035;-56
2022/08/18 09:58:20;;;;;;;83.28;42.17;;;;;;;22.54;68.26;99161.69;5107232;28;20035;-57
2022/08/18 10:01:05;;;;;;;88.50;40.22;;;;;;;23.48;65.57;99156.25;5082722;28;20089;-56
2022/08/18 10:03:30;;;;;;;75.18;40.30;;;;;;;22.82;67.30;99153.91;5089333;28;20036;-56
2022/08/18 10:06:04;;;;;;;74.15;36.55;;;;;;;22.95;66.35;99146.63;5074667;28;20020;-57
2022/08/18 10:08:40;;;;;;;85.70;39.20;;;;;;;23.10;66.36;99139.06;5076986;28;20028;-56
2022/08/18 10:11:22;;;;;;;80.30;37.88;;;;;;;23.26;65.19;99140.09;5092110;28;20140;-57
2022/08/18 10:14:31;;;;;;;70.47;37.22;;;;;;;23.06;65.63;99138.13;5076608;28;20051;-56
2022/08/18 10:17:08;;;;;;;79.30;38.95;;;;;;;22.64;66.75;99137.88;5049285;28;20044;-55
2022/08/18 10:19:56;;;;;;;74.43;36.05;;;;;;;22.15;68.46;99143.53;5077439;28;20154;-56
2022/08/18 10:22:42;;;;;;;65.28;33.88;;;;;;;22.61;67.59;99128.41;5072522;28;20031;-57
2022/08/18 10:25:10;;;;;;;69.20;34.63;;;;;;;22.44;67.42;99139.34;5073757;28;20029;-56
2022/08/18 10:27:49;;;;;;;72.13;35.03;;;;;;;22.40;67.94;99125.56;5078776;28;20131;-56
2022/08/18 10:30:27;;;;;;;71.60;35.38;;;;;;;23.12;65.94;99112.22;5077280;28;20426;-56
2022/08/18 10:32:52;;;;;;;78.30;35.80;;;;;;;22.74;66.62;99107.47;5073293;28;20550;-56
2022/08/18 10:35:54;;;;;;;81.10;35.88;;;;;;;23.42;64.68;99096.63;5072947;28;20268;-56
2022/08/18 10:38:25;;;;;;;82.15;37.90;;;;;;;23.82;62.78;99096.22;5058211;28;20044;-56
2022/08/18 10:40:59;;;;;;;79.47;37.42;;;;;;;23.93;62.29;99093.88;5077540;28;20479;-56
2022/08/18 10:43:43;;;;;;;98.25;44.78;;;;;;;22.10;67.55;99089.13;5078302;28;20093;-56
2022/08/18 10:46:16;;;;;;;79.03;37.88;;;;;;;23.81;63.15;99086.38;5062259;28;20021;-56
2022/08/18 10:48:42;;;;;;;92.45;40.50;;;;;;;23.21;64.50;99104.75;5075109;28;20044;-56
2022/08/18 10:51:07;;;;;;;89.65;41.33;;;;;;;23.00;65.26;99108.22;5079386;28;20074;-56
2022/08/18 10:53:35;;;;;;;99.38;44.47;;;;;;;22.52;66.46;99108.53;5076366;28;20119;-59
2022/08/18 10:56:04;;;;;;;95.07;42.47;;;;;;;22.96;65.83;99101.78;5076763;28;20101;-57
2022/08/18 10:59:01;;;;;;;89.43;42.28;;;;;;;23.28;64.06;99105.03;5078905;28;20503;-57
2022/08/18 11:02:04;;;;;;;100.18;44.15;;;;;;;22.17;67.42;99101.16;5051227;28;20025;-57
2022/08/18 11:04:35;;;;;;;101.30;47.15;;;;;;;21.92;68.72;99097.31;5054600;28;20112;-56
2022/08/18 11:07:07;;;;;;;118.55;49.03;;;;;;;21.92;68.90;99091.06;5057673;28;20036;-56
2022/08/18 11:09:33;;;;;;;122.15;48.95;;;;;;;21.57;69.58;99091.03;5055947;28;20078;-57
2022/08/18 11:12:00;;;;;;;123.65;49.17;;;;;;;21.81;68.98;99084.28;5055103;28;20029;-56
2022/08/18 11:14:47;;;;;;;117.60;48.33;;;;;;;22.11;68.28;99098.91;5089713;28;20050;-56
2022/08/18 11:17:38;;;;;;;115.57;46.90;;;;;;;22.30;67.44;99095.88;5096863;28;20043;-57
2022/08/18 11:20:06;;;;;;;112.40;45.40;;;;;;;22.33;68.00;99087.03;5099356;28;20070;-56
2022/08/18 11:22:33;;;;;;;111.30;45.72;;;;;;;22.96;65.17;99079.91;5092888;28;20020;-57
2022/08/18 11:24:59;;;;;;;106.55;46.05;;;;;;;22.12;67.99;99065.84;5092484;28;20024;-56
2022/08/18 11:27:27;;;;;;;117.57;46.50;;;;;;;22.18;66.97;99072.72;5097095;28;20451;-56
2022/08/18 11:29:53;;;;;;;117.50;47.63;;;;;;;22.73;66.61;99064.91;5092537;28;20031;-55
2022/08/18 11:32:27;;;;;;;116.95;47.08;;;;;;;23.14;64.78;99064.28;5091829;28;20051;-56
2022/08/18 11:34:55;;;;;;;113.05;47.92;;;;;;;23.17;64.91;99049.16;5095945;28;20024;-56
2022/08/18 11:37:26;;;;;;;128.95;50.42;;;;;;;23.08;64.79;99048.41;5092298;28;20063;-55
2022/08/18 11:39:55;;;;;;;141.75;54.55;;;;;;;22.95;65.10;99058.41;5092480;28;20028;-57
2022/08/18 11:42:29;;;;;;;134.70;53.58;;;;;;;22.58;66.49;99086.16;5078490;28;20494;-56
2022/08/18 11:45:16;;;;;;;142.30;53.33;;;;;;;22.33;66.90;99108.88;5075312;28;20027;-57
2022/08/18 11:48:12;;;;;;;128.60;50.22;;;;;;;22.11;68.47;99131.66;5092284;28;20104;-56
2022/08/18 11:50:48;;;;;;;125.57;50.13;;;;;;;22.04;68.47;99134.88;5091227;28;20032;-56
2022/08/18 11:53:33;;;;;;;128.10;50.88;;;;;;;21.81;69.35;99139.66;5092127;28;20067;-56